sensor_id;sensor_type;location;lat;lon;timestamp;temperature;humidity
74809;DHT22;63338;39.544;2.596;2023-11-19T00:01:53;15.30;94.60
74809;DHT22;63338;39.544;2.596;2023-11-19T00:04:20;15.30;94.50
74809;DHT22;63338;39.544;2.596;2023-11-19T00:06:49;15.20;94.40
74809;DHT22;63338;39.544;2.596;2023-11-19T00:09:27;15.20;94.50
74809;DHT22;63338;39.544;2.596;2023-11-19T00:11:54;15.20;94.40
74809;DHT22;63338;39.544;2.596;2023-11-19T00:14:21;15.30;94.40
74809;DHT22;63338;39.544;2.596;2023-11-19T00:16:47;15.30;94.50
74809;DHT22;63338;39.544;2.596;2023-11-19T00:19:15;15.30;94.50
74809;DHT22;63338;39.544;2.596;2023-11-19T00:21:42;15.30;94.30
74809;DHT22;63338;39.544;2.596;2023-11-19T00:24:08;15.30;94.20
74809;DHT22;63338;39.544;2.596;2023-11-19T00:26:34;15.20;94.20
74809;DHT22;63338;39.544;2.596;2023-11-19T00:29:01;15.20;94.20
74809;DHT22;63338;39.544;2.596;2023-11-19T00:31:28;15.10;94.10
74809;DHT22;63338;39.544;2.596;2023-11-19T00:33:54;15.10;94.20
74809;DHT22;63338;39.544;2.596;2023-11-19T00:36:20;15.10;94.20
74809;DHT22;63338;39.544;2.596;2023-11-19T00:38:46;15.10;94.20
74809;DHT22;63338;39.544;2.596;2023-11-19T00:41:12;15.10;94.50
74809;DHT22;63338;39.544;2.596;2023-11-19T00:43:41;15.10;94.30
74809;DHT22;63338;39.544;2.596;2023-11-19T00:46:07;15.00;94.50
74809;DHT22;63338;39.544;2.596;2023-11-19T00:48:34;15.00;94.60
74809;DHT22;63338;39.544;2.596;2023-11-19T00:50:59;15.00;94.70
74809;DHT22;63338;39.544;2.596;2023-11-19T00:53:25;15.00;94.80
74809;DHT22;63338;39.544;2.596;2023-11-19T00:55:51;15.00;94.80
74809;DHT22;63338;39.544;2.596;2023-11-19T00:58:17;15.00;94.90
74809;DHT22;63338;39.544;2.596;2023-11-19T01:00:44;15.10;94.80
74809;DHT22;63338;39.544;2.596;2023-11-19T01:03:10;14.90;94.80
74809;DHT22;63338;39.544;2.596;2023-11-19T01:05:37;15.00;95.20
74809;DHT22;63338;39.544;2.596;2023-11-19T01:08:03;15.00;94.90
74809;DHT22;63338;39.544;2.596;2023-11-19T01:10:31;15.00;94.90
74809;DHT22;63338;39.544;2.596;2023-11-19T01:12:57;15.00;94.70
74809;DHT22;63338;39.544;2.596;2023-11-19T01:15:23;15.00;94.90
74809;DHT22;63338;39.544;2.596;2023-11-19T01:17:49;14.90;94.80
74809;DHT22;63338;39.544;2.596;2023-11-19T01:20:15;15.00;94.80
74809;DHT22;63338;39.544;2.596;2023-11-19T01:22:41;14.90;94.80
74809;DHT22;63338;39.544;2.596;2023-11-19T01:25:07;14.90;94.70
74809;DHT22;63338;39.544;2.596;2023-11-19T01:27:33;14.90;94.70
74809;DHT22;63338;39.544;2.596;2023-11-19T01:30:02;15.00;95.00
74809;DHT22;63338;39.544;2.596;2023-11-19T01:32:29;14.90;94.90
74809;DHT22;63338;39.544;2.596;2023-11-19T01:34:55;14.90;95.00
74809;DHT22;63338;39.544;2.596;2023-11-19T01:37:21;14.90;95.00
74809;DHT22;63338;39.544;2.596;2023-11-19T01:39:47;14.90;95.00
74809;DHT22;63338;39.544;2.596;2023-11-19T01:42:13;14.90;95.00
74809;DHT22;63338;39.544;2.596;2023-11-19T01:44:40;14.80;95.00
74809;DHT22;63338;39.544;2.596;2023-11-19T01:47:06;14.80;95.00
74809;DHT22;63338;39.544;2.596;2023-11-19T01:49:32;14.80;94.90
74809;DHT22;63338;39.544;2.596;2023-11-19T01:51:58;14.80;95.00
74809;DHT22;63338;39.544;2.596;2023-11-19T01:54:25;14.80;95.20
74809;DHT22;63338;39.544;2.596;2023-11-19T01:56:53;14.80;95.10
74809;DHT22;63338;39.544;2.596;2023-11-19T01:59:19;14.80;95.20
74809;DHT22;63338;39.544;2.596;2023-11-19T02:01:53;14.80;95.20
74809;DHT22;63338;39.544;2.596;2023-11-19T02:04:21;14.80;95.20
74809;DHT22;63338;39.544;2.596;2023-11-19T02:06:48;14.70;95.40
74809;DHT22;63338;39.544;2.596;2023-11-19T02:09:18;14.80;95.40
74809;DHT22;63338;39.544;2.596;2023-11-19T02:11:45;14.90;95.50
74809;DHT22;63338;39.544;2.596;2023-11-19T02:14:17;14.80;95.60
74809;DHT22;63338;39.544;2.596;2023-11-19T02:16:44;14.90;95.40
74809;DHT22;63338;39.544;2.596;2023-11-19T02:19:10;14.80;95.50
74809;DHT22;63338;39.544;2.596;2023-11-19T02:21:37;14.80;95.60
74809;DHT22;63338;39.544;2.596;2023-11-19T02:24:07;14.80;95.50
74809;DHT22;63338;39.544;2.596;2023-11-19T02:26:44;14.70;95.50
74809;DHT22;63338;39.544;2.596;2023-11-19T02:29:12;14.80;95.50
74809;DHT22;63338;39.544;2.596;2023-11-19T02:31:39;14.80;95.40
74809;DHT22;63338;39.544;2.596;2023-11-19T02:34:05;14.80;95.50
74809;DHT22;63338;39.544;2.596;2023-11-19T02:36:31;14.90;95.60
74809;DHT22;63338;39.544;2.596;2023-11-19T02:38:58;14.90;95.70
74809;DHT22;63338;39.544;2.596;2023-11-19T02:41:24;14.80;95.60
74809;DHT22;63338;39.544;2.596;2023-11-19T02:43:50;14.80;95.40
74809;DHT22;63338;39.544;2.596;2023-11-19T02:46:16;14.70;95.20
74809;DHT22;63338;39.544;2.596;2023-11-19T02:48:43;14.70;95.20
74809;DHT22;63338;39.544;2.596;2023-11-19T02:51:12;14.70;95.10
74809;DHT22;63338;39.544;2.596;2023-11-19T02:53:38;14.70;95.30
74809;DHT22;63338;39.544;2.596;2023-11-19T02:56:06;14.60;95.30
74809;DHT22;63338;39.544;2.596;2023-11-19T02:58:37;14.60;95.20
74809;DHT22;63338;39.544;2.596;2023-11-19T03:01:05;14.50;95.20
74809;DHT22;63338;39.544;2.596;2023-11-19T03:03:45;14.60;95.20
74809;DHT22;63338;39.544;2.596;2023-11-19T03:06:14;14.50;95.20
74809;DHT22;63338;39.544;2.596;2023-11-19T03:08:41;14.60;95.40
74809;DHT22;63338;39.544;2.596;2023-11-19T03:11:08;14.60;95.50
74809;DHT22;63338;39.544;2.596;2023-11-19T03:13:34;14.50;95.50
74809;DHT22;63338;39.544;2.596;2023-11-19T03:16:01;14.60;95.70
74809;DHT22;63338;39.544;2.596;2023-11-19T03:18:26;14.50;95.60
74809;DHT22;63338;39.544;2.596;2023-11-19T03:20:54;14.50;95.60
74809;DHT22;63338;39.544;2.596;2023-11-19T03:23:20;14.60;95.60
74809;DHT22;63338;39.544;2.596;2023-11-19T03:25:46;14.60;95.70
74809;DHT22;63338;39.544;2.596;2023-11-19T03:28:12;14.50;95.70
74809;DHT22;63338;39.544;2.596;2023-11-19T03:30:38;14.60;95.70
74809;DHT22;63338;39.544;2.596;2023-11-19T03:33:04;14.50;95.70
74809;DHT22;63338;39.544;2.596;2023-11-19T03:35:30;14.40;95.60
74809;DHT22;63338;39.544;2.596;2023-11-19T03:37:56;14.50;95.80
74809;DHT22;63338;39.544;2.596;2023-11-19T03:40:22;14.40;95.70
74809;DHT22;63338;39.544;2.596;2023-11-19T03:42:49;14.40;95.70
74809;DHT22;63338;39.544;2.596;2023-11-19T03:45:16;14.40;95.60
74809;DHT22;63338;39.544;2.596;2023-11-19T03:47:42;14.30;95.60
74809;DHT22;63338;39.544;2.596;2023-11-19T03:50:08;14.30;95.60
74809;DHT22;63338;39.544;2.596;2023-11-19T03:52:35;14.30;95.70
74809;DHT22;63338;39.544;2.596;2023-11-19T03:55:01;14.30;95.70
74809;DHT22;63338;39.544;2.596;2023-11-19T03:57:29;14.20;95.60
74809;DHT22;63338;39.544;2.596;2023-11-19T03:59:55;14.30;95.50
74809;DHT22;63338;39.544;2.596;2023-11-19T04:02:21;14.30;95.50
74809;DHT22;63338;39.544;2.596;2023-11-19T04:04:47;14.20;95.50
74809;DHT22;63338;39.544;2.596;2023-11-19T04:07:14;14.30;95.60
74809;DHT22;63338;39.544;2.596;2023-11-19T04:09:41;14.20;95.50
74809;DHT22;63338;39.544;2.596;2023-11-19T04:12:07;14.10;95.60
74809;DHT22;63338;39.544;2.596;2023-11-19T04:14:33;14.20;95.50
74809;DHT22;63338;39.544;2.596;2023-11-19T04:16:59;14.10;95.30
74809;DHT22;63338;39.544;2.596;2023-11-19T04:19:25;14.10;95.30
74809;DHT22;63338;39.544;2.596;2023-11-19T04:21:51;14.10;95.20
74809;DHT22;63338;39.544;2.596;2023-11-19T04:24:17;14.00;95.20
74809;DHT22;63338;39.544;2.596;2023-11-19T04:26:45;14.00;95.20
74809;DHT22;63338;39.544;2.596;2023-11-19T04:29:12;14.00;95.20
74809;DHT22;63338;39.544;2.596;2023-11-19T04:31:38;14.00;95.10
74809;DHT22;63338;39.544;2.596;2023-11-19T04:34:06;14.00;95.10
74809;DHT22;63338;39.544;2.596;2023-11-19T04:36:32;13.90;95.00
74809;DHT22;63338;39.544;2.596;2023-11-19T04:38:59;14.00;95.10
74809;DHT22;63338;39.544;2.596;2023-11-19T04:41:26;13.90;95.00
74809;DHT22;63338;39.544;2.596;2023-11-19T04:43:55;13.90;95.20
74809;DHT22;63338;39.544;2.596;2023-11-19T04:46:21;13.90;95.20
74809;DHT22;63338;39.544;2.596;2023-11-19T04:48:49;13.80;95.00
74809;DHT22;63338;39.544;2.596;2023-11-19T04:51:16;13.80;94.90
74809;DHT22;63338;39.544;2.596;2023-11-19T04:53:42;13.80;95.00
74809;DHT22;63338;39.544;2.596;2023-11-19T04:56:09;13.90;95.10
74809;DHT22;63338;39.544;2.596;2023-11-19T04:58:36;13.80;94.90
74809;DHT22;63338;39.544;2.596;2023-11-19T05:01:06;13.80;95.10
74809;DHT22;63338;39.544;2.596;2023-11-19T05:03:32;13.80;95.00
74809;DHT22;63338;39.544;2.596;2023-11-19T05:05:58;13.80;94.90
74809;DHT22;63338;39.544;2.596;2023-11-19T05:08:24;13.80;95.00
74809;DHT22;63338;39.544;2.596;2023-11-19T05:10:51;13.70;95.00
74809;DHT22;63338;39.544;2.596;2023-11-19T05:13:17;13.80;95.20
74809;DHT22;63338;39.544;2.596;2023-11-19T05:15:43;13.70;95.20
74809;DHT22;63338;39.544;2.596;2023-11-19T05:18:09;13.70;95.20
74809;DHT22;63338;39.544;2.596;2023-11-19T05:20:35;13.70;95.20
74809;DHT22;63338;39.544;2.596;2023-11-19T05:23:01;13.70;95.30
74809;DHT22;63338;39.544;2.596;2023-11-19T05:25:27;13.80;95.30
74809;DHT22;63338;39.544;2.596;2023-11-19T05:27:53;13.70;95.40
74809;DHT22;63338;39.544;2.596;2023-11-19T05:30:19;13.60;95.30
74809;DHT22;63338;39.544;2.596;2023-11-19T05:32:46;13.70;95.30
74809;DHT22;63338;39.544;2.596;2023-11-19T05:35:12;13.60;95.30
74809;DHT22;63338;39.544;2.596;2023-11-19T05:37:38;13.60;95.30
74809;DHT22;63338;39.544;2.596;2023-11-19T05:40:05;13.60;95.20
74809;DHT22;63338;39.544;2.596;2023-11-19T05:42:33;13.60;95.30
74809;DHT22;63338;39.544;2.596;2023-11-19T05:44:59;13.60;95.20
74809;DHT22;63338;39.544;2.596;2023-11-19T05:47:25;13.60;95.30
74809;DHT22;63338;39.544;2.596;2023-11-19T05:49:51;13.70;95.40
74809;DHT22;63338;39.544;2.596;2023-11-19T05:52:17;13.70;95.30
74809;DHT22;63338;39.544;2.596;2023-11-19T05:54:43;13.60;95.20
74809;DHT22;63338;39.544;2.596;2023-11-19T05:57:09;13.60;95.20
74809;DHT22;63338;39.544;2.596;2023-11-19T05:59:36;13.50;95.20
74809;DHT22;63338;39.544;2.596;2023-11-19T06:02:02;13.50;95.20
74809;DHT22;63338;39.544;2.596;2023-11-19T06:04:29;13.60;95.30
74809;DHT22;63338;39.544;2.596;2023-11-19T06:06:55;13.50;95.20
74809;DHT22;63338;39.544;2.596;2023-11-19T06:09:21;13.50;95.30
74809;DHT22;63338;39.544;2.596;2023-11-19T06:11:50;13.50;95.20
74809;DHT22;63338;39.544;2.596;2023-11-19T06:14:16;13.50;95.20
74809;DHT22;63338;39.544;2.596;2023-11-19T06:16:42;13.50;95.10
74809;DHT22;63338;39.544;2.596;2023-11-19T06:19:09;13.50;95.20
74809;DHT22;63338;39.544;2.596;2023-11-19T06:21:37;13.40;95.20
74809;DHT22;63338;39.544;2.596;2023-11-19T06:24:03;13.40;95.40
74809;DHT22;63338;39.544;2.596;2023-11-19T06:26:29;13.50;95.20
74809;DHT22;63338;39.544;2.596;2023-11-19T06:28:55;13.50;95.30
74809;DHT22;63338;39.544;2.596;2023-11-19T06:31:21;13.40;95.40
74809;DHT22;63338;39.544;2.596;2023-11-19T06:33:47;13.50;95.30
74809;DHT22;63338;39.544;2.596;2023-11-19T06:36:16;13.50;95.30
74809;DHT22;63338;39.544;2.596;2023-11-19T06:38:43;13.50;95.40
74809;DHT22;63338;39.544;2.596;2023-11-19T06:41:09;13.50;95.40
74809;DHT22;63338;39.544;2.596;2023-11-19T06:43:36;13.40;95.50
74809;DHT22;63338;39.544;2.596;2023-11-19T06:46:02;13.50;95.50
74809;DHT22;63338;39.544;2.596;2023-11-19T06:48:32;13.60;95.50
74809;DHT22;63338;39.544;2.596;2023-11-19T06:50:58;13.70;95.50
74809;DHT22;63338;39.544;2.596;2023-11-19T06:53:24;13.80;95.70
74809;DHT22;63338;39.544;2.596;2023-11-19T06:55:51;13.90;95.60
74809;DHT22;63338;39.544;2.596;2023-11-19T06:58:17;14.10;95.70
74809;DHT22;63338;39.544;2.596;2023-11-19T07:00:43;14.20;95.20
74809;DHT22;63338;39.544;2.596;2023-11-19T07:03:10;14.50;95.40
74809;DHT22;63338;39.544;2.596;2023-11-19T07:05:36;14.90;95.20
74809;DHT22;63338;39.544;2.596;2023-11-19T07:08:06;15.10;94.90
74809;DHT22;63338;39.544;2.596;2023-11-19T07:10:35;15.50;92.60
74809;DHT22;63338;39.544;2.596;2023-11-19T07:13:01;15.90;91.60
74809;DHT22;63338;39.544;2.596;2023-11-19T07:15:28;16.30;91.00
74809;DHT22;63338;39.544;2.596;2023-11-19T07:17:54;16.70;90.00
74809;DHT22;63338;39.544;2.596;2023-11-19T07:20:20;17.00;88.80
74809;DHT22;63338;39.544;2.596;2023-11-19T07:22:46;17.40;87.50
74809;DHT22;63338;39.544;2.596;2023-11-19T07:25:13;17.80;86.30
74809;DHT22;63338;39.544;2.596;2023-11-19T07:27:39;18.20;84.20
74809;DHT22;63338;39.544;2.596;2023-11-19T07:30:06;18.40;83.40
74809;DHT22;63338;39.544;2.596;2023-11-19T07:32:33;18.80;83.00
74809;DHT22;63338;39.544;2.596;2023-11-19T07:34:59;18.60;82.40
74809;DHT22;63338;39.544;2.596;2023-11-19T07:37:25;18.40;82.40
74809;DHT22;63338;39.544;2.596;2023-11-19T07:39:52;17.80;84.10
74809;DHT22;63338;39.544;2.596;2023-11-19T07:42:19;17.50;84.60
74809;DHT22;63338;39.544;2.596;2023-11-19T07:44:45;17.20;85.10
74809;DHT22;63338;39.544;2.596;2023-11-19T07:47:12;17.00;86.00
74809;DHT22;63338;39.544;2.596;2023-11-19T07:49:38;16.80;86.50
74809;DHT22;63338;39.544;2.596;2023-11-19T07:52:05;16.70;87.20
74809;DHT22;63338;39.544;2.596;2023-11-19T07:54:31;16.50;87.70
74809;DHT22;63338;39.544;2.596;2023-11-19T07:56:57;16.50;88.60
74809;DHT22;63338;39.544;2.596;2023-11-19T07:59:23;16.30;89.10
74809;DHT22;63338;39.544;2.596;2023-11-19T08:01:49;16.40;89.70
74809;DHT22;63338;39.544;2.596;2023-11-19T08:04:15;16.40;90.20
74809;DHT22;63338;39.544;2.596;2023-11-19T08:06:41;16.40;90.80
74809;DHT22;63338;39.544;2.596;2023-11-19T08:09:07;16.50;91.00
74809;DHT22;63338;39.544;2.596;2023-11-19T08:11:40;16.50;91.20
74809;DHT22;63338;39.544;2.596;2023-11-19T08:14:06;16.60;91.40
74809;DHT22;63338;39.544;2.596;2023-11-19T08:16:32;16.70;91.40
74809;DHT22;63338;39.544;2.596;2023-11-19T08:18:59;16.90;91.50
74809;DHT22;63338;39.544;2.596;2023-11-19T08:21:25;17.60;91.80
74809;DHT22;63338;39.544;2.596;2023-11-19T08:23:52;18.80;90.20
74809;DHT22;63338;39.544;2.596;2023-11-19T08:26:18;19.80;88.00
74809;DHT22;63338;39.544;2.596;2023-11-19T08:28:44;20.90;84.20
74809;DHT22;63338;39.544;2.596;2023-11-19T08:31:11;21.90;81.50
74809;DHT22;63338;39.544;2.596;2023-11-19T08:33:37;22.80;78.90
74809;DHT22;63338;39.544;2.596;2023-11-19T08:36:04;23.60;75.90
74809;DHT22;63338;39.544;2.596;2023-11-19T08:38:30;24.40;73.00
74809;DHT22;63338;39.544;2.596;2023-11-19T08:40:56;25.00;71.00
74809;DHT22;63338;39.544;2.596;2023-11-19T08:43:26;25.50;69.40
74809;DHT22;63338;39.544;2.596;2023-11-19T08:45:53;26.10;68.20
74809;DHT22;63338;39.544;2.596;2023-11-19T08:48:19;26.40;66.80
74809;DHT22;63338;39.544;2.596;2023-11-19T08:50:45;26.90;65.90
74809;DHT22;63338;39.544;2.596;2023-11-19T08:53:11;27.30;63.90
74809;DHT22;63338;39.544;2.596;2023-11-19T08:55:38;27.70;63.20
74809;DHT22;63338;39.544;2.596;2023-11-19T08:58:04;28.10;61.60
74809;DHT22;63338;39.544;2.596;2023-11-19T09:00:30;28.40;60.80
74809;DHT22;63338;39.544;2.596;2023-11-19T09:02:58;28.60;60.00
74809;DHT22;63338;39.544;2.596;2023-11-19T09:05:31;28.80;59.20
74809;DHT22;63338;39.544;2.596;2023-11-19T09:11:00;29.30;56.90
74809;DHT22;63338;39.544;2.596;2023-11-19T09:13:28;29.50;56.70
74809;DHT22;63338;39.544;2.596;2023-11-19T09:15:54;29.60;56.10
74809;DHT22;63338;39.544;2.596;2023-11-19T09:18:23;29.80;56.10
74809;DHT22;63338;39.544;2.596;2023-11-19T09:20:49;29.80;55.90
74809;DHT22;63338;39.544;2.596;2023-11-19T09:23:15;29.90;55.50
74809;DHT22;63338;39.544;2.596;2023-11-19T09:25:41;30.10;55.20
74809;DHT22;63338;39.544;2.596;2023-11-19T09:28:07;30.20;55.40
74809;DHT22;63338;39.544;2.596;2023-11-19T09:30:34;30.40;54.90
74809;DHT22;63338;39.544;2.596;2023-11-19T09:33:01;30.60;54.90
74809;DHT22;63338;39.544;2.596;2023-11-19T09:35:27;30.60;54.20
74809;DHT22;63338;39.544;2.596;2023-11-19T09:37:54;30.60;55.00
74809;DHT22;63338;39.544;2.596;2023-11-19T09:40:20;30.70;54.10
74809;DHT22;63338;39.544;2.596;2023-11-19T09:42:47;30.70;54.10
74809;DHT22;63338;39.544;2.596;2023-11-19T09:45:15;30.60;54.10
74809;DHT22;63338;39.544;2.596;2023-11-19T09:47:45;30.60;54.10
74809;DHT22;63338;39.544;2.596;2023-11-19T09:50:19;30.60;54.40
74809;DHT22;63338;39.544;2.596;2023-11-19T09:52:46;30.70;54.10
74809;DHT22;63338;39.544;2.596;2023-11-19T09:55:32;30.60;54.30
74809;DHT22;63338;39.544;2.596;2023-11-19T09:58:40;30.60;54.60
74809;DHT22;63338;39.544;2.596;2023-11-19T10:01:07;30.40;54.50
74809;DHT22;63338;39.544;2.596;2023-11-19T10:03:36;30.00;55.00
74809;DHT22;63338;39.544;2.596;2023-11-19T10:06:09;29.90;55.50
74809;DHT22;63338;39.544;2.596;2023-11-19T10:08:37;29.80;55.60
74809;DHT22;63338;39.544;2.596;2023-11-19T10:11:06;29.90;55.60
74809;DHT22;63338;39.544;2.596;2023-11-19T10:13:34;30.10;55.40
74809;DHT22;63338;39.544;2.596;2023-11-19T10:16:11;30.40;55.40
74809;DHT22;63338;39.544;2.596;2023-11-19T10:18:46;30.70;55.20
74809;DHT22;63338;39.544;2.596;2023-11-19T10:21:13;30.80;54.90
74809;DHT22;63338;39.544;2.596;2023-11-19T10:23:53;31.10;54.60
74809;DHT22;63338;39.544;2.596;2023-11-19T10:26:20;31.30;54.40
74809;DHT22;63338;39.544;2.596;2023-11-19T10:28:47;31.40;54.10
74809;DHT22;63338;39.544;2.596;2023-11-19T10:31:14;31.70;54.00
74809;DHT22;63338;39.544;2.596;2023-11-19T10:33:42;31.70;53.60
74809;DHT22;63338;39.544;2.596;2023-11-19T10:36:11;31.70;53.50
74809;DHT22;63338;39.544;2.596;2023-11-19T10:38:40;31.60;53.90
74809;DHT22;63338;39.544;2.596;2023-11-19T10:41:27;31.70;53.70
74809;DHT22;63338;39.544;2.596;2023-11-19T10:43:53;31.60;54.00
74809;DHT22;63338;39.544;2.596;2023-11-19T10:46:19;31.40;53.60
74809;DHT22;63338;39.544;2.596;2023-11-19T10:48:49;31.10;54.30
74809;DHT22;63338;39.544;2.596;2023-11-19T10:51:19;30.80;54.50
74809;DHT22;63338;39.544;2.596;2023-11-19T10:53:50;30.70;54.90
74809;DHT22;63338;39.544;2.596;2023-11-19T10:56:17;30.60;54.90
74809;DHT22;63338;39.544;2.596;2023-11-19T10:58:46;30.60;54.50
74809;DHT22;63338;39.544;2.596;2023-11-19T11:01:18;30.50;55.20
74809;DHT22;63338;39.544;2.596;2023-11-19T11:03:47;30.50;55.60
74809;DHT22;63338;39.544;2.596;2023-11-19T11:06:14;30.10;55.60
74809;DHT22;63338;39.544;2.596;2023-11-19T11:08:40;30.10;55.90
74809;DHT22;63338;39.544;2.596;2023-11-19T11:11:07;30.10;55.70
74809;DHT22;63338;39.544;2.596;2023-11-19T11:13:33;30.30;55.10
74809;DHT22;63338;39.544;2.596;2023-11-19T11:16:05;30.40;54.80
74809;DHT22;63338;39.544;2.596;2023-11-19T11:18:33;30.10;54.70
74809;DHT22;63338;39.544;2.596;2023-11-19T11:21:12;29.80;55.50
74809;DHT22;63338;39.544;2.596;2023-11-19T11:32:39;29.60;55.50
74809;DHT22;63338;39.544;2.596;2023-11-19T11:38:07;29.10;57.10
74809;DHT22;63338;39.544;2.596;2023-11-19T11:40:33;28.80;57.20
74809;DHT22;63338;39.544;2.596;2023-11-19T11:43:00;28.80;57.30
74809;DHT22;63338;39.544;2.596;2023-11-19T11:45:39;28.80;56.90
74809;DHT22;63338;39.544;2.596;2023-11-19T11:48:12;28.80;57.60
74809;DHT22;63338;39.544;2.596;2023-11-19T11:50:56;28.80;57.60
74809;DHT22;63338;39.544;2.596;2023-11-19T11:53:24;28.70;57.50
74809;DHT22;63338;39.544;2.596;2023-11-19T11:58:27;28.40;58.00
74809;DHT22;63338;39.544;2.596;2023-11-19T12:00:58;28.30;58.10
74809;DHT22;63338;39.544;2.596;2023-11-19T12:03:27;28.10;58.30
74809;DHT22;63338;39.544;2.596;2023-11-19T12:05:54;28.00;58.40
74809;DHT22;63338;39.544;2.596;2023-11-19T12:08:25;27.80;58.80
74809;DHT22;63338;39.544;2.596;2023-11-19T12:10:56;27.60;59.30
74809;DHT22;63338;39.544;2.596;2023-11-19T12:13:24;27.30;60.00
74809;DHT22;63338;39.544;2.596;2023-11-19T12:18:33;27.20;60.40
74809;DHT22;63338;39.544;2.596;2023-11-19T12:21:02;27.10;60.50
74809;DHT22;63338;39.544;2.596;2023-11-19T12:23:32;26.80;60.80
74809;DHT22;63338;39.544;2.596;2023-11-19T12:25:58;26.60;61.50
74809;DHT22;63338;39.544;2.596;2023-11-19T12:28:25;26.60;61.20
74809;DHT22;63338;39.544;2.596;2023-11-19T12:31:08;26.30;62.70
74809;DHT22;63338;39.544;2.596;2023-11-19T12:37:27;25.90;63.70
74809;DHT22;63338;39.544;2.596;2023-11-19T12:39:53;25.70;64.40
74809;DHT22;63338;39.544;2.596;2023-11-19T12:42:19;25.80;64.60
74809;DHT22;63338;39.544;2.596;2023-11-19T12:44:55;25.70;64.20
74809;DHT22;63338;39.544;2.596;2023-11-19T12:47:22;25.80;64.40
74809;DHT22;63338;39.544;2.596;2023-11-19T12:49:57;25.80;64.30
74809;DHT22;63338;39.544;2.596;2023-11-19T12:57:20;25.80;64.70
74809;DHT22;63338;39.544;2.596;2023-11-19T13:00:47;25.70;64.90
74809;DHT22;63338;39.544;2.596;2023-11-19T13:03:32;25.90;64.10
74809;DHT22;63338;39.544;2.596;2023-11-19T13:06:06;26.20;64.00
74809;DHT22;63338;39.544;2.596;2023-11-19T13:11:04;26.50;62.60
74809;DHT22;63338;39.544;2.596;2023-11-19T13:14:02;26.60;62.00
74809;DHT22;63338;39.544;2.596;2023-11-19T13:16:42;26.60;62.00
74809;DHT22;63338;39.544;2.596;2023-11-19T13:19:23;26.70;62.00
74809;DHT22;63338;39.544;2.596;2023-11-19T13:21:54;26.70;61.80
74809;DHT22;63338;39.544;2.596;2023-11-19T13:24:22;26.60;62.10
74809;DHT22;63338;39.544;2.596;2023-11-19T13:26:48;26.70;61.80
74809;DHT22;63338;39.544;2.596;2023-11-19T13:29:14;26.60;62.40
74809;DHT22;63338;39.544;2.596;2023-11-19T13:31:40;26.70;62.50
74809;DHT22;63338;39.544;2.596;2023-11-19T13:34:07;26.70;62.00
74809;DHT22;63338;39.544;2.596;2023-11-19T13:36:33;26.80;61.70
74809;DHT22;63338;39.544;2.596;2023-11-19T13:39:03;26.90;61.90
74809;DHT22;63338;39.544;2.596;2023-11-19T13:42:04;26.90;62.00
74809;DHT22;63338;39.544;2.596;2023-11-19T13:44:33;27.00;61.90
74809;DHT22;63338;39.544;2.596;2023-11-19T13:46:59;27.00;62.10
74809;DHT22;63338;39.544;2.596;2023-11-19T13:49:26;27.20;61.30
74809;DHT22;63338;39.544;2.596;2023-11-19T13:51:53;26.90;61.60
74809;DHT22;63338;39.544;2.596;2023-11-19T13:54:20;26.80;61.90
74809;DHT22;63338;39.544;2.596;2023-11-19T13:56:47;26.80;61.80
74809;DHT22;63338;39.544;2.596;2023-11-19T13:59:13;26.70;61.90
74809;DHT22;63338;39.544;2.596;2023-11-19T14:01:39;26.80;62.20
74809;DHT22;63338;39.544;2.596;2023-11-19T14:04:05;26.90;62.20
74809;DHT22;63338;39.544;2.596;2023-11-19T14:06:32;27.00;62.00
74809;DHT22;63338;39.544;2.596;2023-11-19T14:08:58;26.90;61.60
74809;DHT22;63338;39.544;2.596;2023-11-19T14:11:24;26.80;62.10
74809;DHT22;63338;39.544;2.596;2023-11-19T14:13:50;26.80;62.00
74809;DHT22;63338;39.544;2.596;2023-11-19T14:16:18;26.80;62.10
74809;DHT22;63338;39.544;2.596;2023-11-19T14:18:44;26.90;62.00
74809;DHT22;63338;39.544;2.596;2023-11-19T14:21:10;26.90;62.00
74809;DHT22;63338;39.544;2.596;2023-11-19T14:23:36;26.80;61.90
74809;DHT22;63338;39.544;2.596;2023-11-19T14:26:02;26.50;62.40
74809;DHT22;63338;39.544;2.596;2023-11-19T14:28:28;25.90;64.20
74809;DHT22;63338;39.544;2.596;2023-11-19T14:30:54;25.50;65.10
74809;DHT22;63338;39.544;2.596;2023-11-19T14:33:22;25.00;66.50
74809;DHT22;63338;39.544;2.596;2023-11-19T14:35:48;24.80;66.80
74809;DHT22;63338;39.544;2.596;2023-11-19T14:38:14;24.30;67.50
74809;DHT22;63338;39.544;2.596;2023-11-19T14:40:41;23.80;69.00
74809;DHT22;63338;39.544;2.596;2023-11-19T14:43:08;23.60;70.40
74809;DHT22;63338;39.544;2.596;2023-11-19T14:45:37;23.30;71.10
74809;DHT22;63338;39.544;2.596;2023-11-19T14:48:04;23.00;71.80
74809;DHT22;63338;39.544;2.596;2023-11-19T14:50:30;22.80;72.40
74809;DHT22;63338;39.544;2.596;2023-11-19T14:52:56;22.50;73.40
74809;DHT22;63338;39.544;2.596;2023-11-19T14:55:22;22.30;73.90
74809;DHT22;63338;39.544;2.596;2023-11-19T14:57:48;22.10;74.40
74809;DHT22;63338;39.544;2.596;2023-11-19T15:00:16;22.00;74.90
74809;DHT22;63338;39.544;2.596;2023-11-19T15:02:42;21.90;75.20
74809;DHT22;63338;39.544;2.596;2023-11-19T15:05:08;21.80;75.90
74809;DHT22;63338;39.544;2.596;2023-11-19T15:07:39;21.70;76.20
74809;DHT22;63338;39.544;2.596;2023-11-19T15:10:06;21.70;76.60
74809;DHT22;63338;39.544;2.596;2023-11-19T15:12:39;21.50;76.90
74809;DHT22;63338;39.544;2.596;2023-11-19T15:15:07;21.40;77.10
74809;DHT22;63338;39.544;2.596;2023-11-19T15:17:35;21.40;77.40
74809;DHT22;63338;39.544;2.596;2023-11-19T15:20:03;21.40;77.50
74809;DHT22;63338;39.544;2.596;2023-11-19T15:22:29;21.30;77.60
74809;DHT22;63338;39.544;2.596;2023-11-19T15:24:55;21.30;77.30
74809;DHT22;63338;39.544;2.596;2023-11-19T15:27:21;21.30;77.60
74809;DHT22;63338;39.544;2.596;2023-11-19T15:29:47;21.30;77.60
74809;DHT22;63338;39.544;2.596;2023-11-19T15:32:14;21.30;77.80
74809;DHT22;63338;39.544;2.596;2023-11-19T15:34:40;21.30;77.60
74809;DHT22;63338;39.544;2.596;2023-11-19T15:37:08;21.10;77.90
74809;DHT22;63338;39.544;2.596;2023-11-19T15:39:34;21.10;78.00
74809;DHT22;63338;39.544;2.596;2023-11-19T15:42:02;21.10;78.10
74809;DHT22;63338;39.544;2.596;2023-11-19T15:44:28;21.00;78.30
74809;DHT22;63338;39.544;2.596;2023-11-19T15:46:54;21.00;78.30
74809;DHT22;63338;39.544;2.596;2023-11-19T15:49:20;20.90;78.60
74809;DHT22;63338;39.544;2.596;2023-11-19T15:51:47;20.80;79.90
74809;DHT22;63338;39.544;2.596;2023-11-19T15:54:13;20.70;80.10
74809;DHT22;63338;39.544;2.596;2023-11-19T15:56:39;20.70;80.20
74809;DHT22;63338;39.544;2.596;2023-11-19T15:59:05;20.70;80.20
74809;DHT22;63338;39.544;2.596;2023-11-19T16:01:31;20.60;80.50
74809;DHT22;63338;39.544;2.596;2023-11-19T16:03:58;20.60;80.60
74809;DHT22;63338;39.544;2.596;2023-11-19T16:06:25;20.60;80.50